• Join FlightAware (Why Join?)
  • Login
  • US Flag 
12:36PM EDT


 

Airport Tracker/Info


-or-


 

Live Flight TrackerFlight Track Log ✈ UAL252 ✈ 20-Jun-2013 ✈ KSAN - KIAH

Flight Track Log - Related Links

Times and Time Zones

All times are in EDT time to prevent confusion due to time zone crossing. See the UAL252 flight status page for this flight to view local times or setup timezone preferences in your user account.

Time Position Orientation Groundspeed Altitude Reporting Facility
EDT Latitude Longitude Course Direction KTS MPH feet Rate Location/Type
04:00PM 32.7414 -117.2242 90° East 144 166 1,500  Level Los Angeles Center
04:01PM 32.7553 -117.2892 284° West 191 220 3,000 2,040 Climbing Los Angeles Center
04:02PM 32.6169 -117.0676 103° East  Level FlightAware Approximate
04:02PM 32.7014 -117.3053 194° South 246 283 5,800  Level Los Angeles Center
04:03PM 32.6032 -116.9320 84° East  Level FlightAware Approximate
04:03PM 32.6472 -117.2281 130° Southeast 276 318 8,700  Level Los Angeles Center
04:04PM 32.6157 -116.7946 84° East  Level FlightAware Approximate
04:04PM 32.6325 -117.1261 100° East 310 357 11,000  Level Los Angeles Center
04:05PM 32.6333 -116.6592 90° East  Level FlightAware Approximate
04:05PM 32.6147 -117.0147 101° East 336 387 12,600  Level Los Angeles Center
04:06PM 32.6225 -116.8961 86° East 367 422 14,800 1,920 Climbing Los Angeles Center
04:07PM 32.6292 -116.7686 86° East 385 443 16,700 1,980 Climbing Los Angeles Center
04:08PM 32.6458 -116.6133 83° East 396 456 19,000 1,980 Climbing Los Angeles Center
04:09PM 32.6589 -116.4778 83° East 415 478 20,800 1,680 Climbing Los Angeles Center
04:10PM 32.6708 -116.3408 84° East 423 487 22,500 1,560 Climbing Los Angeles Center
04:11PM 32.6853 -116.2000 83° East 435 501 24,100 1,560 Climbing Los Angeles Center
04:12PM 32.7022 -116.0236 83° East 451 519 25,800 1,380 Climbing Los Angeles Center
04:13PM 32.7158 -115.8747 84° East 458 527 27,000 1,140 Climbing Los Angeles Center
04:14PM 32.7294 -115.7211 84° East 469 540 28,200 1,200 Climbing Los Angeles Center
04:15PM 32.7433 -115.5631 84° East 480 552 29,600 1,080 Climbing Los Angeles Center
04:16PM 32.7525 -115.4028 86° East 490 564 30,500 900 Climbing Los Angeles Center
04:17PM 32.7553 -115.2400 89° East 495 570 31,500 1,140 Climbing Los Angeles Center
04:18PM 32.7597 -115.0403 88° East 503 579 32,900 1,140 Climbing Los Angeles Center
04:19PM 32.7631 -114.8739 89° East 505 581 33,900 960 Climbing Los Angeles Center
04:20PM 32.7650 -114.7086 89° East 502 578 35,000 960 Climbing Los Angeles Center
04:21PM 32.7672 -114.5439 89° East 501 577 36,000 900 Climbing Los Angeles Center
04:22PM 32.7694 -114.3797 89° East 499 574 36,900 480 Climbing Los Angeles Center
04:23PM 32.7714 -114.2167 89° East 495 570 37,000  Climbing Los Angeles Center
04:24PM 32.7742 -114.0536 89° East 495 570 37,000  Level Los Angeles Center
04:25PM 32.7939 -113.8586 83° East 495 570 37,000  Level Los Angeles Center
04:27PM 32.8183 -113.6989 80° East 494 568 37,000 -60 Level Los Angeles Center
04:28PM 32.8386 -113.5381 81° East 492 566 36,900 -60 Descending Los Angeles Center
04:29PM 32.8644 -113.3572 80° East 494 568 36,900  Level Los Angeles Center
04:30PM 32.8872 -113.1953 80° East 494 568 37,000  Climbing Los Angeles Center
04:31PM 32.9181 -112.9658 81° East 495 570 37,000  Level Albuquerque Center
04:33PM 32.9447 -112.6406 84° East 494 568 37,000  Level Albuquerque Center
04:34PM 32.9144 -112.4828 103° East 488 562 37,000 -60 Level Albuquerque Center
04:35PM 32.8856 -112.3250 102° East 487 560 36,900  Descending Albuquerque Center
04:36PM 32.8536 -112.1517 102° East 487 560 37,000  Climbing Albuquerque Center
04:37PM 32.8242 -111.9939 102° East 489 563 37,000  Level Albuquerque Center
04:38PM 32.7931 -111.8353 103° East 494 568 37,000  Level Albuquerque Center
04:39PM 32.7636 -111.6789 103° East 491 565 37,000  Level Albuquerque Center
04:40PM 32.7333 -111.5225 103° East 490 564 37,000  Level Albuquerque Center
04:41PM 32.7022 -111.3656 103° East 491 565 37,000  Level Albuquerque Center
04:42PM 32.6647 -111.1783 103° East 489 563 37,000  Level Albuquerque Center
04:43PM 32.6344 -111.0206 103° East 492 566 37,000  Level Albuquerque Center
04:44PM 32.6025 -110.8642 104° East 491 565 37,000  Level Albuquerque Center
04:45PM 32.5719 -110.7072 103° East 491 565 37,000  Level Albuquerque Center
04:46PM 32.5392 -110.5506 104° East 491 565 37,000  Level Albuquerque Center
04:47PM 32.5075 -110.3942 103° East 490 564 37,000  Level Albuquerque Center
04:49PM 32.4694 -110.2064 103° East 490 564 37,000  Level Albuquerque Center
04:50PM 32.4375 -110.0497 104° East 491 565 37,000  Level Albuquerque Center
04:51PM 32.4028 -109.8811 104° East 492 566 37,000  Level Albuquerque Center
04:52PM 32.3694 -109.7253 104° East 490 564 37,000  Level Albuquerque Center
04:53PM 32.3367 -109.5697 104° East 489 563 37,000 -60 Level Albuquerque Center
04:54PM 32.3031 -109.4150 104° East 489 563 36,900 -60 Descending Albuquerque Center
04:55PM 32.2717 -109.2597 103° East 488 562 36,900  Level Albuquerque Center
04:56PM 32.2356 -109.1061 105° East 488 562 36,900  Level Albuquerque Center
04:57PM 32.1922 -108.9228 106° East 484 557 37,000  Climbing Albuquerque Center
04:59PM 32.1189 -108.6169 106° East 487 560 37,000  Level Albuquerque Center
05:00PM 32.0883 -108.4594 103° East 493 567 37,000  Level Albuquerque Center
05:01PM 32.0844 -108.3000 92° East 494 568 37,000  Level Albuquerque Center
05:02PM 32.0744 -108.1403 94° East 492 566 37,000  Level Albuquerque Center
05:03PM 32.0625 -107.9506 94° East 488 562 37,000 -60 Level Albuquerque Center
05:04PM 32.0539 -107.7936 94° East 485 558 36,900  Descending Albuquerque Center
05:05PM 32.0547 -107.6336 90° East 495 570 37,000  Climbing Albuquerque Center
05:06PM 32.0233 -107.4817 104° East 487 560 37,000  Level Albuquerque Center
05:07PM 31.9908 -107.3311 104° East 482 555 37,000  Level Albuquerque Center
05:08PM 31.9581 -107.1806 104° East 481 554 37,000  Level Albuquerque Center
05:09PM 31.9194 -106.9986 104° East 480 552 37,000  Level Albuquerque Center
05:10PM 31.8878 -106.8481 104° East 479 551 37,000  Level Albuquerque Center
05:11PM 31.8556 -106.6953 104° East 483 556 37,000  Level Albuquerque Center
05:12PM 31.8186 -106.5278 105° East 486 559 37,000  Level Albuquerque Center
05:13PM 31.7872 -106.3719 103° East 491 565 37,000  Level Albuquerque Center
05:14PM 31.7522 -106.2183 105° East 490 564 37,000  Level Albuquerque Center
05:15PM 31.7194 -106.0667 104° East 481 554 37,000  Level Albuquerque Center
05:16PM 31.6864 -105.9150 104° East 480 552 37,000  Level Albuquerque Center
05:17PM 31.6533 -105.7650 104° East 476 548 37,000  Level Albuquerque Center
05:18PM 31.6128 -105.5853 105° East 474 545 37,000  Level Albuquerque Center
05:19PM 31.5756 -105.4364 106° East 474 545 37,000  Level Albuquerque Center
05:20PM 31.5292 -105.2933 111° Southeast 470 541 37,000 -60 Level Albuquerque Center
05:21PM 31.4822 -105.1506 111° Southeast 468 539 36,900 -60 Descending Albuquerque Center
05:23PM 31.4739 -104.9953 94° East 477 549 36,900  Level Albuquerque Center
05:24PM 31.4936 -104.8392 82° East 481 554 37,000  Climbing Albuquerque Center
05:25PM 31.5164 -104.6833 80° East 484 557 37,000  Level Albuquerque Center
05:26PM 31.5503 -104.5264 76° East 494 568 37,000  Level Albuquerque Center
05:27PM 31.5919 -104.3389 75° East 495 570 37,000  Level Albuquerque Center
05:28PM 31.6269 -104.1853 75° East 491 565 37,000 -60 Level Albuquerque Center
05:29PM 31.6458 -104.0303 82° East 481 554 36,900 -60 Descending Albuquerque Center
05:30PM 31.6897 -103.8828 71° East 483 556 36,900  Level Albuquerque Center
05:31PM 31.7544 -103.7406 62° Northeast 484 557 37,000  Climbing Albuquerque Center
05:32PM 31.8128 -103.5983 64° Northeast 484 557 37,000  Level Albuquerque Center
05:33PM 31.8744 -103.4575 63° Northeast 486 559 37,000  Level Albuquerque Center
05:34PM 31.9367 -103.3158 63° Northeast 488 562 37,000  Level Albuquerque Center
05:35PM 31.9792 -103.1364 74° East 489 563 37,000  Level Albuquerque Center
05:36PM 31.9494 -102.9858 103° East 479 551 37,000  Level Albuquerque Center
05:37PM 31.9172 -102.8386 104° East 472 543 37,000  Level Albuquerque Center
05:38PM 31.8844 -102.6886 104° East 473 544 37,100  Climbing Albuquerque Center
05:39PM 31.8511 -102.5383 105° East 476 548 37,000 -60 Descending Albuquerque Center
05:40PM 31.8186 -102.3889 104° East 474 545 37,000  Level Albuquerque Center
05:41PM 31.7794 -102.2131 105° East 469 540 37,000  Level Albuquerque Center
05:42PM 31.7464 -102.0656 105° East 469 540 37,000 -60 Level Albuquerque Center
05:43PM 31.7275 -101.9794 104° East 471 542 36,900  Descending Houston Center
05:44PM 31.6942 -101.8306 105° East 471 542 37,000  Climbing Houston Center
05:45PM 31.6158 -101.6744 120° Southeast 466 536 37,000  Level Houston Center
05:46PM 31.5467 -101.5506 123° Southeast 458 527 37,000  Level Houston Center
05:47PM 31.4786 -101.4194 121° Southeast 462 532 37,000  Level Houston Center
05:48PM 31.4089 -101.2881 122° Southeast 469 540 37,000  Level Houston Center
05:49PM 31.3378 -101.1583 123° Southeast 472 543 37,000 -60 Level Houston Center
05:50PM 31.2656 -101.0317 124° Southeast 472 543 36,900  Descending Houston Center
05:51PM 31.1731 -100.8839 126° Southeast 470 541 37,000  Climbing Houston Center
05:52PM 31.0956 -100.7581 126° Southeast 473 544 37,000  Level Houston Center
05:53PM 31.0186 -100.6331 126° Southeast 475 547 37,000  Level Houston Center
05:54PM 30.9442 -100.5056 124° Southeast 476 548 37,000  Level Houston Center
05:55PM 30.8767 -100.3689 120° Southeast 482 555 37,000  Level Houston Center
05:56PM 30.8078 -100.2328 120° Southeast 484 557 37,000 -60 Level Houston Center
05:57PM 30.7267 -100.0717 120° Southeast 481 554 36,900  Descending Houston Center
05:58PM 30.6575 -99.9364 121° Southeast 483 556 37,000  Climbing Houston Center
05:59PM 30.5875 -99.8006 121° Southeast 486 559 37,000  Level Houston Center
06:00PM 30.5192 -99.6664 121° Southeast 484 557 37,000  Level Houston Center
06:01PM 30.4494 -99.5314 121° Southeast 485 558 37,000  Level Houston Center
06:02PM 30.3792 -99.3964 121° Southeast 487 560 37,000  Level Houston Center
06:03PM 30.3094 -99.2628 121° Southeast 485 558 37,000  Level Houston Center
06:04PM 30.2264 -99.1039 121° Southeast 482 555 37,000  Level Houston Center
06:06PM 30.1525 -98.9636 121° Southeast 480 552 37,000  Level Houston Center
06:07PM 30.0842 -98.8322 121° Southeast 477 549 37,000  Level Houston Center
06:08PM 30.0103 -98.6906 121° Southeast 479 551 37,000  Level Houston Center
06:09PM 29.9411 -98.5608 122° Southeast 475 547 37,000  Level Houston Center
06:10PM 29.8711 -98.4294 122° Southeast 482 555 37,000 -300 Level Houston Center
06:11PM 29.7967 -98.2858 121° Southeast 482 555 36,400 -540 Descending Houston Center
06:12PM 29.7250 -98.1539 122° Southeast 484 557 36,000 -240 Descending Houston Center
06:13PM 29.6658 -98.0006 114° Southeast 488 562 36,000  Level Houston Center
06:14PM 29.6514 -97.8456 96° East 490 564 36,000  Level Houston Center
06:15PM 29.6406 -97.7047 95° East 469 540 36,000  Level Houston Center
06:16PM 29.5906 -97.5800 115° Southeast 433 498 36,000  Level Houston Center
06:17PM 29.5364 -97.4578 117° Southeast 426 490 36,000  Level Houston Center
06:18PM 29.4225 -97.3828 150° Southeast 422 486 36,000  Level Houston Center
06:19PM 29.3056 -97.3900 183° South 415 478 36,000  Level Houston Center
06:20PM 29.2003 -97.3964 183° South 416 479 36,000  Level Houston Center
06:21PM 29.0847 -97.4028 183° South 416 479 36,000 -660 Level Houston Center
06:22PM 28.9481 -97.4114 183° South 413 475 34,700 -1,320 Descending Houston Center
06:23PM 28.8450 -97.3461 151° Southeast 434 499 33,300 -1,800 Descending Houston Center
06:24PM 28.7472 -97.2439 137° Southeast 454 522 31,000 -2,820 Descending Houston Center
06:25PM 28.7314 -97.1217 98° East 457 526 27,500 -3,000 Descending Houston Center
06:26PM 28.7953 -97.0039 58° Northeast 442 509 24,900 -1,740 Descending Houston Center
06:27PM 28.9019 -96.8903 43° Northeast 436 502 24,000 -480 Descending Houston Center
06:28PM 28.9900 -96.7956 43° Northeast 434 499 24,000  Level Houston Center
06:29PM 29.0744 -96.6978 45° Northeast 434 499 24,000 -1,020 Level Houston Center
06:30PM 29.1592 -96.6039 44° Northeast 426 490 22,000 -2,100 Descending Houston Center
06:31PM 29.2417 -96.5114 44° Northeast 415 478 19,700 -2,340 Descending Houston Center
06:32PM 29.3208 -96.4225 44° Northeast 403 464 17,200 -2,520 Descending Houston Center
06:33PM 29.4131 -96.3181 45° Northeast 392 451 14,500 -2,460 Descending Houston Center
06:35PM 29.4883 -96.2322 45° Northeast 384 442 12,200 -1,260 Descending Houston Center
06:36PM 29.5564 -96.1494 47° Northeast 363 418 12,000 -900 Descending Houston Center
06:37PM 29.6025 -96.0539 61° Northeast 349 402 10,400 -1,020 Descending Houston Center
06:38PM 29.6486 -95.9619 60° Northeast 338 389 10,000 -240 Descending Houston Center
06:39PM 29.6961 -95.8689 60° Northeast 337 388 10,000 -420 Level Houston Center
06:40PM 29.7489 -95.7636 60° Northeast 322 371 9,200 -1,080 Descending Houston Center
06:41PM 29.7900 -95.6819 60° Northeast 304 350 7,800 -1,440 Descending Houston Center
06:42PM 29.8311 -95.6017 59° Northeast 295 339 6,300 -900 Descending Houston Center
06:43PM 29.8689 -95.5231 61° Northeast 285 328 6,000 -180 Descending Houston Center
06:44PM 29.8967 -95.4444 68° East 274 315 6,000  Level Houston Center
06:45PM 29.8967 -95.3689 90° East 241 277 6,000  Level Houston Center
06:46PM 29.8964 -95.2922 90° East 238 274 6,000 -120 Level Houston Center
06:47PM 29.8975 -95.1986 89° East 241 277 5,800 -780 Descending Houston Center
06:48PM 29.8975 -95.1228 90° East 237 273 4,400 -1,380 Descending Houston Center
06:49PM 29.9417 -95.0831 38° Northeast 224 258 3,000 -1,380 Descending Houston Center